sensor_id;sensor_type;location;lat;lon;timestamp;P1;durP1;ratioP1;P2;durP2;ratioP2
21761;SDS011;11203;50.870;20.682;2022-12-07T00:01:31;24.35;;;16.45;;
21761;SDS011;11203;50.870;20.682;2022-12-07T00:04:00;27.45;;;17.15;;
21761;SDS011;11203;50.870;20.682;2022-12-07T00:06:35;24.70;;;17.38;;
21761;SDS011;11203;50.870;20.682;2022-12-07T00:09:04;23.08;;;14.95;;
21761;SDS011;11203;50.870;20.682;2022-12-07T00:11:32;24.00;;;16.10;;
21761;SDS011;11203;50.870;20.682;2022-12-07T00:13:59;28.35;;;17.02;;
21761;SDS011;11203;50.870;20.682;2022-12-07T00:16:31;26.00;;;16.48;;
21761;SDS011;11203;50.870;20.682;2022-12-07T00:18:58;28.92;;;19.92;;
21761;SDS011;11203;50.870;20.682;2022-12-07T00:21:26;24.52;;;17.02;;
21761;SDS011;11203;50.870;20.682;2022-12-07T00:23:55;24.73;;;16.88;;
21761;SDS011;11203;50.870;20.682;2022-12-07T00:28:54;26.23;;;18.42;;
21761;SDS011;11203;50.870;20.682;2022-12-07T00:31:26;30.20;;;19.67;;
21761;SDS011;11203;50.870;20.682;2022-12-07T00:33:55;34.08;;;19.33;;
21761;SDS011;11203;50.870;20.682;2022-12-07T00:36:23;35.45;;;22.65;;
21761;SDS011;11203;50.870;20.682;2022-12-07T00:38:50;35.75;;;21.17;;
21761;SDS011;11203;50.870;20.682;2022-12-07T00:41:18;31.33;;;19.83;;
21761;SDS011;11203;50.870;20.682;2022-12-07T00:43:47;28.98;;;19.80;;
21761;SDS011;11203;50.870;20.682;2022-12-07T00:46:14;29.10;;;18.40;;
21761;SDS011;11203;50.870;20.682;2022-12-07T00:48:42;23.90;;;16.77;;
21761;SDS011;11203;50.870;20.682;2022-12-07T00:51:09;23.65;;;16.05;;
21761;SDS011;11203;50.870;20.682;2022-12-07T00:53:37;25.02;;;15.77;;
21761;SDS011;11203;50.870;20.682;2022-12-07T00:56:04;23.42;;;14.98;;
21761;SDS011;11203;50.870;20.682;2022-12-07T00:58:38;23.75;;;16.20;;
21761;SDS011;11203;50.870;20.682;2022-12-07T01:01:05;22.95;;;14.88;;
21761;SDS011;11203;50.870;20.682;2022-12-07T01:03:32;22.95;;;15.85;;
21761;SDS011;11203;50.870;20.682;2022-12-07T01:05:59;24.02;;;14.90;;
21761;SDS011;11203;50.870;20.682;2022-12-07T01:08:26;26.65;;;15.05;;
21761;SDS011;11203;50.870;20.682;2022-12-07T01:11:01;25.35;;;16.13;;
21761;SDS011;11203;50.870;20.682;2022-12-07T01:13:30;25.60;;;15.73;;
21761;SDS011;11203;50.870;20.682;2022-12-07T01:15:58;29.85;;;16.00;;
21761;SDS011;11203;50.870;20.682;2022-12-07T01:18:26;28.00;;;16.60;;
21761;SDS011;11203;50.870;20.682;2022-12-07T01:20:57;26.48;;;17.33;;
21761;SDS011;11203;50.870;20.682;2022-12-07T01:23:25;28.27;;;17.38;;
21761;SDS011;11203;50.870;20.682;2022-12-07T01:25:58;29.67;;;17.88;;
21761;SDS011;11203;50.870;20.682;2022-12-07T01:28:27;25.20;;;16.02;;
21761;SDS011;11203;50.870;20.682;2022-12-07T01:31:01;27.83;;;17.00;;
21761;SDS011;11203;50.870;20.682;2022-12-07T01:33:31;28.35;;;17.33;;
21761;SDS011;11203;50.870;20.682;2022-12-07T01:36:01;25.35;;;16.90;;
21761;SDS011;11203;50.870;20.682;2022-12-07T01:38:38;26.95;;;16.30;;
21761;SDS011;11203;50.870;20.682;2022-12-07T01:41:05;26.08;;;15.50;;
21761;SDS011;11203;50.870;20.682;2022-12-07T01:43:32;23.95;;;15.25;;
21761;SDS011;11203;50.870;20.682;2022-12-07T01:45:59;25.38;;;15.90;;
21761;SDS011;11203;50.870;20.682;2022-12-07T01:48:32;25.67;;;15.77;;
21761;SDS011;11203;50.870;20.682;2022-12-07T01:51:05;26.02;;;15.70;;
21761;SDS011;11203;50.870;20.682;2022-12-07T01:53:37;27.33;;;16.48;;
21761;SDS011;11203;50.870;20.682;2022-12-07T01:56:09;28.30;;;16.50;;
21761;SDS011;11203;50.870;20.682;2022-12-07T01:58:40;26.38;;;15.35;;
21761;SDS011;11203;50.870;20.682;2022-12-07T02:01:06;25.25;;;15.27;;
21761;SDS011;11203;50.870;20.682;2022-12-07T02:03:38;25.60;;;16.67;;
21761;SDS011;11203;50.870;20.682;2022-12-07T02:06:07;26.52;;;16.48;;
21761;SDS011;11203;50.870;20.682;2022-12-07T02:08:35;25.05;;;16.23;;
21761;SDS011;11203;50.870;20.682;2022-12-07T02:11:02;26.63;;;16.52;;
21761;SDS011;11203;50.870;20.682;2022-12-07T02:13:31;24.17;;;16.00;;
21761;SDS011;11203;50.870;20.682;2022-12-07T02:18:50;29.60;;;18.48;;
21761;SDS011;11203;50.870;20.682;2022-12-07T02:30:18;23.92;;;15.45;;
21761;SDS011;11203;50.870;20.682;2022-12-07T02:35:48;24.63;;;15.85;;
21761;SDS011;11203;50.870;20.682;2022-12-07T02:38:31;27.52;;;18.73;;
21761;SDS011;11203;50.870;20.682;2022-12-07T02:41:07;23.80;;;16.05;;
21761;SDS011;11203;50.870;20.682;2022-12-07T02:43:50;22.00;;;15.45;;
21761;SDS011;11203;50.870;20.682;2022-12-07T02:46:21;22.30;;;14.95;;
21761;SDS011;11203;50.870;20.682;2022-12-07T02:48:55;23.17;;;15.18;;
21761;SDS011;11203;50.870;20.682;2022-12-07T02:51:24;22.40;;;14.85;;
21761;SDS011;11203;50.870;20.682;2022-12-07T02:53:51;23.67;;;15.38;;
21761;SDS011;11203;50.870;20.682;2022-12-07T02:56:29;21.05;;;14.85;;
21761;SDS011;11203;50.870;20.682;2022-12-07T03:04:42;19.80;;;13.85;;
21761;SDS011;11203;50.870;20.682;2022-12-07T03:13:48;20.02;;;14.60;;
21761;SDS011;11203;50.870;20.682;2022-12-07T03:16:25;19.90;;;13.07;;
21761;SDS011;11203;50.870;20.682;2022-12-07T03:21:59;19.88;;;13.48;;
21761;SDS011;11203;50.870;20.682;2022-12-07T03:24:31;20.55;;;14.07;;
21761;SDS011;11203;50.870;20.682;2022-12-07T03:27:06;22.58;;;14.50;;
21761;SDS011;11203;50.870;20.682;2022-12-07T03:29:39;26.05;;;18.25;;
21761;SDS011;11203;50.870;20.682;2022-12-07T03:32:30;25.73;;;16.83;;
21761;SDS011;11203;50.870;20.682;2022-12-07T03:40:25;24.20;;;16.55;;
21761;SDS011;11203;50.870;20.682;2022-12-07T03:43:06;23.35;;;15.55;;
21761;SDS011;11203;50.870;20.682;2022-12-07T03:45:36;23.52;;;16.15;;
21761;SDS011;11203;50.870;20.682;2022-12-07T03:48:37;22.92;;;15.20;;
21761;SDS011;11203;50.870;20.682;2022-12-07T03:57:33;21.48;;;13.60;;
21761;SDS011;11203;50.870;20.682;2022-12-07T04:00:02;23.02;;;13.93;;
21761;SDS011;11203;50.870;20.682;2022-12-07T04:02:31;21.13;;;13.65;;
21761;SDS011;11203;50.870;20.682;2022-12-07T04:04:59;21.58;;;13.68;;
21761;SDS011;11203;50.870;20.682;2022-12-07T04:07:25;21.05;;;13.30;;
21761;SDS011;11203;50.870;20.682;2022-12-07T04:09:51;20.92;;;14.25;;
21761;SDS011;11203;50.870;20.682;2022-12-07T04:12:20;20.48;;;13.82;;
21761;SDS011;11203;50.870;20.682;2022-12-07T04:14:47;22.13;;;13.70;;
21761;SDS011;11203;50.870;20.682;2022-12-07T04:17:13;23.63;;;14.20;;
21761;SDS011;11203;50.870;20.682;2022-12-07T04:19:39;22.95;;;13.43;;
21761;SDS011;11203;50.870;20.682;2022-12-07T04:22:05;21.30;;;13.75;;
21761;SDS011;11203;50.870;20.682;2022-12-07T04:24:32;23.40;;;14.27;;
21761;SDS011;11203;50.870;20.682;2022-12-07T04:26:59;21.17;;;13.65;;
21761;SDS011;11203;50.870;20.682;2022-12-07T04:29:25;24.27;;;13.98;;
21761;SDS011;11203;50.870;20.682;2022-12-07T04:31:52;23.10;;;15.93;;
21761;SDS011;11203;50.870;20.682;2022-12-07T04:34:18;26.15;;;16.20;;
21761;SDS011;11203;50.870;20.682;2022-12-07T04:36:45;23.63;;;14.30;;
21761;SDS011;11203;50.870;20.682;2022-12-07T04:41:49;21.35;;;14.38;;
21761;SDS011;11203;50.870;20.682;2022-12-07T04:44:16;21.38;;;13.55;;
21761;SDS011;11203;50.870;20.682;2022-12-07T04:46:43;23.08;;;14.73;;
21761;SDS011;11203;50.870;20.682;2022-12-07T04:49:09;20.95;;;12.25;;
21761;SDS011;11203;50.870;20.682;2022-12-07T04:51:36;23.58;;;15.52;;
21761;SDS011;11203;50.870;20.682;2022-12-07T04:54:02;23.73;;;14.38;;
21761;SDS011;11203;50.870;20.682;2022-12-07T04:56:29;23.77;;;15.23;;
21761;SDS011;11203;50.870;20.682;2022-12-07T04:58:55;26.65;;;16.95;;
21761;SDS011;11203;50.870;20.682;2022-12-07T05:01:21;24.15;;;15.80;;
21761;SDS011;11203;50.870;20.682;2022-12-07T05:03:49;22.58;;;14.23;;
21761;SDS011;11203;50.870;20.682;2022-12-07T05:06:15;24.52;;;14.57;;
21761;SDS011;11203;50.870;20.682;2022-12-07T05:08:42;24.00;;;15.45;;
21761;SDS011;11203;50.870;20.682;2022-12-07T05:11:09;23.45;;;14.50;;
21761;SDS011;11203;50.870;20.682;2022-12-07T05:14:00;25.23;;;15.90;;
21761;SDS011;11203;50.870;20.682;2022-12-07T05:16:27;24.63;;;16.02;;
21761;SDS011;11203;50.870;20.682;2022-12-07T05:18:54;26.05;;;16.02;;
21761;SDS011;11203;50.870;20.682;2022-12-07T05:21:20;25.30;;;16.55;;
21761;SDS011;11203;50.870;20.682;2022-12-07T05:23:47;24.88;;;17.25;;
21761;SDS011;11203;50.870;20.682;2022-12-07T05:26:13;30.70;;;19.02;;
21761;SDS011;11203;50.870;20.682;2022-12-07T05:28:39;27.40;;;16.60;;
21761;SDS011;11203;50.870;20.682;2022-12-07T05:31:06;26.00;;;17.58;;
21761;SDS011;11203;50.870;20.682;2022-12-07T05:33:32;25.88;;;16.52;;
21761;SDS011;11203;50.870;20.682;2022-12-07T05:35:58;26.20;;;16.30;;
21761;SDS011;11203;50.870;20.682;2022-12-07T05:38:24;22.48;;;15.13;;
21761;SDS011;11203;50.870;20.682;2022-12-07T05:40:50;27.00;;;16.65;;
21761;SDS011;11203;50.870;20.682;2022-12-07T05:43:16;26.65;;;15.48;;
21761;SDS011;11203;50.870;20.682;2022-12-07T05:45:42;23.60;;;15.00;;
21761;SDS011;11203;50.870;20.682;2022-12-07T05:48:09;27.85;;;17.45;;
21761;SDS011;11203;50.870;20.682;2022-12-07T05:50:35;31.98;;;19.42;;
21761;SDS011;11203;50.870;20.682;2022-12-07T05:53:01;30.00;;;19.58;;
21761;SDS011;11203;50.870;20.682;2022-12-07T05:55:27;29.67;;;18.85;;
21761;SDS011;11203;50.870;20.682;2022-12-07T05:57:53;31.85;;;19.23;;
21761;SDS011;11203;50.870;20.682;2022-12-07T06:00:48;38.40;;;22.30;;
21761;SDS011;11203;50.870;20.682;2022-12-07T06:03:15;36.45;;;20.17;;
21761;SDS011;11203;50.870;20.682;2022-12-07T06:05:41;30.30;;;18.05;;
21761;SDS011;11203;50.870;20.682;2022-12-07T06:08:07;33.88;;;19.17;;
21761;SDS011;11203;50.870;20.682;2022-12-07T06:10:33;35.97;;;22.92;;
21761;SDS011;11203;50.870;20.682;2022-12-07T06:12:59;26.63;;;16.42;;
21761;SDS011;11203;50.870;20.682;2022-12-07T06:15:25;29.10;;;17.35;;
21761;SDS011;11203;50.870;20.682;2022-12-07T06:17:53;24.45;;;15.02;;
21761;SDS011;11203;50.870;20.682;2022-12-07T06:20:19;24.42;;;15.15;;
21761;SDS011;11203;50.870;20.682;2022-12-07T06:22:45;23.73;;;15.57;;
21761;SDS011;11203;50.870;20.682;2022-12-07T06:25:11;26.85;;;17.20;;
21761;SDS011;11203;50.870;20.682;2022-12-07T06:27:37;25.52;;;15.82;;
21761;SDS011;11203;50.870;20.682;2022-12-07T06:30:03;22.70;;;14.57;;
21761;SDS011;11203;50.870;20.682;2022-12-07T06:32:32;19.50;;;12.50;;
21761;SDS011;11203;50.870;20.682;2022-12-07T06:34:59;20.73;;;12.35;;
21761;SDS011;11203;50.870;20.682;2022-12-07T06:37:25;23.38;;;15.73;;
21761;SDS011;11203;50.870;20.682;2022-12-07T06:39:51;26.15;;;15.55;;
21761;SDS011;11203;50.870;20.682;2022-12-07T06:42:17;26.23;;;16.02;;
21761;SDS011;11203;50.870;20.682;2022-12-07T06:44:43;22.20;;;12.85;;
21761;SDS011;11203;50.870;20.682;2022-12-07T06:47:10;21.63;;;14.00;;
21761;SDS011;11203;50.870;20.682;2022-12-07T06:49:36;21.63;;;13.27;;
21761;SDS011;11203;50.870;20.682;2022-12-07T06:52:02;24.70;;;16.52;;
21761;SDS011;11203;50.870;20.682;2022-12-07T06:54:30;24.30;;;15.50;;
21761;SDS011;11203;50.870;20.682;2022-12-07T06:56:57;24.35;;;16.02;;
21761;SDS011;11203;50.870;20.682;2022-12-07T06:59:23;24.48;;;14.95;;
21761;SDS011;11203;50.870;20.682;2022-12-07T07:01:49;24.95;;;16.10;;
21761;SDS011;11203;50.870;20.682;2022-12-07T07:04:15;22.70;;;16.13;;
21761;SDS011;11203;50.870;20.682;2022-12-07T07:06:41;25.05;;;15.10;;
21761;SDS011;11203;50.870;20.682;2022-12-07T07:09:07;25.90;;;16.00;;
21761;SDS011;11203;50.870;20.682;2022-12-07T07:11:34;23.30;;;15.05;;
21761;SDS011;11203;50.870;20.682;2022-12-07T07:14:00;27.10;;;17.63;;
21761;SDS011;11203;50.870;20.682;2022-12-07T07:16:28;26.20;;;17.45;;
21761;SDS011;11203;50.870;20.682;2022-12-07T07:18:56;26.15;;;17.35;;
21761;SDS011;11203;50.870;20.682;2022-12-07T07:21:22;26.10;;;18.67;;
21761;SDS011;11203;50.870;20.682;2022-12-07T07:23:48;24.67;;;16.52;;
21761;SDS011;11203;50.870;20.682;2022-12-07T07:26:14;24.90;;;17.80;;
21761;SDS011;11203;50.870;20.682;2022-12-07T07:28:40;23.50;;;15.27;;
21761;SDS011;11203;50.870;20.682;2022-12-07T07:31:07;26.85;;;16.27;;
21761;SDS011;11203;50.870;20.682;2022-12-07T07:33:32;25.50;;;18.48;;
21761;SDS011;11203;50.870;20.682;2022-12-07T07:35:59;26.13;;;18.98;;
21761;SDS011;11203;50.870;20.682;2022-12-07T07:38:25;28.52;;;18.67;;
21761;SDS011;11203;50.870;20.682;2022-12-07T07:40:51;29.33;;;18.75;;
21761;SDS011;11203;50.870;20.682;2022-12-07T07:43:17;26.77;;;18.63;;
21761;SDS011;11203;50.870;20.682;2022-12-07T07:45:43;26.77;;;18.42;;
21761;SDS011;11203;50.870;20.682;2022-12-07T07:48:09;26.50;;;17.25;;
21761;SDS011;11203;50.870;20.682;2022-12-07T07:50:36;27.77;;;17.90;;
21761;SDS011;11203;50.870;20.682;2022-12-07T07:53:02;27.80;;;17.15;;
21761;SDS011;11203;50.870;20.682;2022-12-07T07:55:28;28.50;;;20.42;;
21761;SDS011;11203;50.870;20.682;2022-12-07T07:57:54;29.13;;;19.25;;
21761;SDS011;11203;50.870;20.682;2022-12-07T08:00:20;27.50;;;19.20;;
21761;SDS011;11203;50.870;20.682;2022-12-07T08:02:47;28.52;;;18.08;;
21761;SDS011;11203;50.870;20.682;2022-12-07T08:05:13;29.23;;;20.38;;
21761;SDS011;11203;50.870;20.682;2022-12-07T08:07:41;24.33;;;15.85;;
21761;SDS011;11203;50.870;20.682;2022-12-07T08:10:08;23.02;;;14.55;;
21761;SDS011;11203;50.870;20.682;2022-12-07T08:12:37;24.02;;;16.25;;
21761;SDS011;11203;50.870;20.682;2022-12-07T08:15:26;20.95;;;13.80;;
21761;SDS011;11203;50.870;20.682;2022-12-07T08:17:54;22.02;;;14.63;;
21761;SDS011;11203;50.870;20.682;2022-12-07T08:20:20;17.33;;;9.63;;
21761;SDS011;11203;50.870;20.682;2022-12-07T08:22:46;24.95;;;17.58;;
21761;SDS011;11203;50.870;20.682;2022-12-07T08:25:13;25.05;;;17.80;;
21761;SDS011;11203;50.870;20.682;2022-12-07T08:27:39;25.40;;;16.90;;
21761;SDS011;11203;50.870;20.682;2022-12-07T08:30:05;20.00;;;12.57;;
21761;SDS011;11203;50.870;20.682;2022-12-07T08:32:32;23.45;;;16.50;;
21761;SDS011;11203;50.870;20.682;2022-12-07T08:34:58;21.40;;;12.50;;
21761;SDS011;11203;50.870;20.682;2022-12-07T08:37:24;23.67;;;15.15;;
21761;SDS011;11203;50.870;20.682;2022-12-07T08:39:50;22.73;;;15.23;;
21761;SDS011;11203;50.870;20.682;2022-12-07T08:42:16;24.65;;;17.08;;
21761;SDS011;11203;50.870;20.682;2022-12-07T08:44:42;20.13;;;12.45;;
21761;SDS011;11203;50.870;20.682;2022-12-07T08:47:08;25.63;;;17.38;;
21761;SDS011;11203;50.870;20.682;2022-12-07T08:49:36;23.63;;;14.40;;
21761;SDS011;11203;50.870;20.682;2022-12-07T08:52:07;27.25;;;19.77;;
21761;SDS011;11203;50.870;20.682;2022-12-07T08:54:34;24.27;;;13.95;;
21761;SDS011;11203;50.870;20.682;2022-12-07T08:57:02;23.77;;;15.13;;
21761;SDS011;11203;50.870;20.682;2022-12-07T08:59:30;22.67;;;15.48;;
21761;SDS011;11203;50.870;20.682;2022-12-07T09:01:56;21.50;;;13.90;;
21761;SDS011;11203;50.870;20.682;2022-12-07T09:04:22;15.50;;;8.45;;
21761;SDS011;11203;50.870;20.682;2022-12-07T09:06:48;14.65;;;10.40;;
21761;SDS011;11203;50.870;20.682;2022-12-07T09:09:14;16.42;;;9.93;;
21761;SDS011;11203;50.870;20.682;2022-12-07T09:11:41;16.40;;;11.85;;
21761;SDS011;11203;50.870;20.682;2022-12-07T09:14:07;16.63;;;12.25;;
21761;SDS011;11203;50.870;20.682;2022-12-07T09:16:34;16.40;;;11.50;;
21761;SDS011;11203;50.870;20.682;2022-12-07T09:19:00;11.52;;;8.27;;
21761;SDS011;11203;50.870;20.682;2022-12-07T09:21:26;16.48;;;11.82;;
21761;SDS011;11203;50.870;20.682;2022-12-07T09:23:52;12.50;;;7.68;;
21761;SDS011;11203;50.870;20.682;2022-12-07T09:26:18;13.27;;;7.35;;
21761;SDS011;11203;50.870;20.682;2022-12-07T09:28:44;16.02;;;10.52;;
21761;SDS011;11203;50.870;20.682;2022-12-07T09:31:10;13.05;;;8.98;;
21761;SDS011;11203;50.870;20.682;2022-12-07T09:33:36;17.15;;;11.68;;
21761;SDS011;11203;50.870;20.682;2022-12-07T09:36:03;26.95;;;19.05;;
21761;SDS011;11203;50.870;20.682;2022-12-07T09:38:30;16.35;;;11.07;;
21761;SDS011;11203;50.870;20.682;2022-12-07T09:40:57;21.92;;;15.20;;
21761;SDS011;11203;50.870;20.682;2022-12-07T09:43:34;18.05;;;12.20;;
21761;SDS011;11203;50.870;20.682;2022-12-07T09:46:02;20.80;;;13.05;;
21761;SDS011;11203;50.870;20.682;2022-12-07T09:48:30;19.40;;;13.38;;
21761;SDS011;11203;50.870;20.682;2022-12-07T09:51:02;17.55;;;10.73;;
21761;SDS011;11203;50.870;20.682;2022-12-07T09:53:45;19.95;;;14.23;;
21761;SDS011;11203;50.870;20.682;2022-12-07T09:56:13;22.55;;;15.82;;
21761;SDS011;11203;50.870;20.682;2022-12-07T09:58:41;24.25;;;17.13;;
21761;SDS011;11203;50.870;20.682;2022-12-07T10:01:14;23.70;;;17.23;;
21761;SDS011;11203;50.870;20.682;2022-12-07T10:06:19;23.75;;;18.65;;
21761;SDS011;11203;50.870;20.682;2022-12-07T10:08:46;23.17;;;15.90;;
21761;SDS011;11203;50.870;20.682;2022-12-07T10:11:12;22.45;;;16.73;;
21761;SDS011;11203;50.870;20.682;2022-12-07T10:13:41;19.55;;;13.70;;
21761;SDS011;11203;50.870;20.682;2022-12-07T10:19:45;19.98;;;16.25;;
21761;SDS011;11203;50.870;20.682;2022-12-07T10:22:00;23.98;;;18.10;;
21761;SDS011;11203;50.870;20.682;2022-12-07T10:24:43;23.48;;;18.17;;
21761;SDS011;11203;50.870;20.682;2022-12-07T10:27:31;22.83;;;16.48;;
21761;SDS011;11203;50.870;20.682;2022-12-07T10:29:58;21.40;;;14.23;;
21761;SDS011;11203;50.870;20.682;2022-12-07T10:32:32;13.07;;;7.00;;
21761;SDS011;11203;50.870;20.682;2022-12-07T10:37:47;16.88;;;11.90;;
21761;SDS011;11203;50.870;20.682;2022-12-07T10:40:36;15.32;;;9.60;;
21761;SDS011;11203;50.870;20.682;2022-12-07T10:54:12;14.70;;;11.52;;
21761;SDS011;11203;50.870;20.682;2022-12-07T11:02:58;16.42;;;11.98;;
21761;SDS011;11203;50.870;20.682;2022-12-07T11:14:35;14.38;;;11.23;;
21761;SDS011;11203;50.870;20.682;2022-12-07T11:17:15;16.23;;;13.38;;
21761;SDS011;11203;50.870;20.682;2022-12-07T11:20:01;14.35;;;9.63;;
21761;SDS011;11203;50.870;20.682;2022-12-07T11:22:59;17.52;;;12.55;;
21761;SDS011;11203;50.870;20.682;2022-12-07T11:31:12;19.98;;;13.57;;
21761;SDS011;11203;50.870;20.682;2022-12-07T11:36:35;13.43;;;10.52;;
21761;SDS011;11203;50.870;20.682;2022-12-07T11:42:04;14.45;;;10.95;;
21761;SDS011;11203;50.870;20.682;2022-12-07T11:47:45;17.83;;;12.40;;
21761;SDS011;11203;50.870;20.682;2022-12-07T11:58:55;17.52;;;13.65;;
21761;SDS011;11203;50.870;20.682;2022-12-07T12:02:03;16.90;;;12.90;;
21761;SDS011;11203;50.870;20.682;2022-12-07T12:07:23;16.48;;;11.30;;
21761;SDS011;11203;50.870;20.682;2022-12-07T12:09:53;19.77;;;14.30;;
21761;SDS011;11203;50.870;20.682;2022-12-07T12:15:13;18.98;;;14.60;;
21761;SDS011;11203;50.870;20.682;2022-12-07T12:21:10;18.23;;;13.25;;
21761;SDS011;11203;50.870;20.682;2022-12-07T12:23:45;23.67;;;15.38;;
21761;SDS011;11203;50.870;20.682;2022-12-07T12:26:24;19.77;;;13.82;;
21761;SDS011;11203;50.870;20.682;2022-12-07T12:28:55;19.90;;;13.73;;
21761;SDS011;11203;50.870;20.682;2022-12-07T12:34:00;23.00;;;15.55;;
21761;SDS011;11203;50.870;20.682;2022-12-07T12:44:38;22.25;;;15.45;;
21761;SDS011;11203;50.870;20.682;2022-12-07T12:47:00;22.80;;;15.55;;
21761;SDS011;11203;50.870;20.682;2022-12-07T12:59:18;23.65;;;16.15;;
21761;SDS011;11203;50.870;20.682;2022-12-07T13:01:47;27.55;;;16.95;;
21761;SDS011;11203;50.870;20.682;2022-12-07T13:07:13;26.17;;;18.02;;
21761;SDS011;11203;50.870;20.682;2022-12-07T13:15:46;25.67;;;18.08;;
21761;SDS011;11203;50.870;20.682;2022-12-07T13:26:18;47.15;;;31.90;;
21761;SDS011;11203;50.870;20.682;2022-12-07T13:29:38;52.67;;;36.63;;
21761;SDS011;11203;50.870;20.682;2022-12-07T13:31:47;51.53;;;35.17;;
21761;SDS011;11203;50.870;20.682;2022-12-07T13:34:36;52.67;;;30.58;;
21761;SDS011;11203;50.870;20.682;2022-12-07T13:37:15;48.80;;;32.90;;
21761;SDS011;11203;50.870;20.682;2022-12-07T13:39:53;47.40;;;33.33;;
21761;SDS011;11203;50.870;20.682;2022-12-07T13:44:57;43.88;;;29.02;;
21761;SDS011;11203;50.870;20.682;2022-12-07T13:47:48;45.60;;;31.27;;
21761;SDS011;11203;50.870;20.682;2022-12-07T13:50:28;38.15;;;25.17;;
21761;SDS011;11203;50.870;20.682;2022-12-07T13:52:57;37.53;;;21.42;;
21761;SDS011;11203;50.870;20.682;2022-12-07T13:55:25;36.78;;;23.02;;
21761;SDS011;11203;50.870;20.682;2022-12-07T13:57:53;31.05;;;20.30;;
21761;SDS011;11203;50.870;20.682;2022-12-07T14:00:24;31.10;;;19.25;;
21761;SDS011;11203;50.870;20.682;2022-12-07T14:05:28;32.25;;;18.42;;
21761;SDS011;11203;50.870;20.682;2022-12-07T14:08:04;28.40;;;18.80;;
21761;SDS011;11203;50.870;20.682;2022-12-07T14:13:37;33.20;;;19.52;;
21761;SDS011;11203;50.870;20.682;2022-12-07T14:18:55;34.60;;;21.15;;
21761;SDS011;11203;50.870;20.682;2022-12-07T14:21:24;37.72;;;22.75;;
21761;SDS011;11203;50.870;20.682;2022-12-07T14:26:45;32.20;;;20.63;;
21761;SDS011;11203;50.870;20.682;2022-12-07T14:31:53;36.63;;;21.90;;
21761;SDS011;11203;50.870;20.682;2022-12-07T14:34:20;33.08;;;22.23;;
21761;SDS011;11203;50.870;20.682;2022-12-07T14:36:48;35.95;;;21.85;;
21761;SDS011;11203;50.870;20.682;2022-12-07T14:39:15;35.78;;;22.67;;
21761;SDS011;11203;50.870;20.682;2022-12-07T14:41:41;38.60;;;23.90;;
21761;SDS011;11203;50.870;20.682;2022-12-07T14:44:17;36.13;;;22.15;;
21761;SDS011;11203;50.870;20.682;2022-12-07T14:46:48;37.55;;;23.20;;
21761;SDS011;11203;50.870;20.682;2022-12-07T14:49:15;38.92;;;24.35;;
21761;SDS011;11203;50.870;20.682;2022-12-07T14:51:42;41.50;;;24.85;;
21761;SDS011;11203;50.870;20.682;2022-12-07T14:54:13;42.13;;;24.65;;
21761;SDS011;11203;50.870;20.682;2022-12-07T14:56:43;46.67;;;27.42;;
21761;SDS011;11203;50.870;20.682;2022-12-07T14:59:11;53.88;;;33.50;;
21761;SDS011;11203;50.870;20.682;2022-12-07T15:01:37;60.03;;;34.28;;
21761;SDS011;11203;50.870;20.682;2022-12-07T15:04:04;60.83;;;35.53;;
21761;SDS011;11203;50.870;20.682;2022-12-07T15:06:30;65.10;;;37.85;;
21761;SDS011;11203;50.870;20.682;2022-12-07T15:08:57;68.80;;;41.78;;
21761;SDS011;11203;50.870;20.682;2022-12-07T15:11:23;73.65;;;42.58;;
21761;SDS011;11203;50.870;20.682;2022-12-07T15:13:57;72.15;;;45.80;;
21761;SDS011;11203;50.870;20.682;2022-12-07T15:16:33;70.90;;;44.20;;
21761;SDS011;11203;50.870;20.682;2022-12-07T15:19:00;71.13;;;47.28;;
21761;SDS011;11203;50.870;20.682;2022-12-07T15:21:26;75.13;;;46.85;;
21761;SDS011;11203;50.870;20.682;2022-12-07T15:23:52;71.47;;;42.78;;
21761;SDS011;11203;50.870;20.682;2022-12-07T15:26:19;66.63;;;41.03;;
21761;SDS011;11203;50.870;20.682;2022-12-07T15:28:45;71.50;;;45.85;;
21761;SDS011;11203;50.870;20.682;2022-12-07T15:31:15;68.32;;;42.10;;
21761;SDS011;11203;50.870;20.682;2022-12-07T15:33:42;73.15;;;44.03;;
21761;SDS011;11203;50.870;20.682;2022-12-07T15:36:12;73.05;;;47.33;;
21761;SDS011;11203;50.870;20.682;2022-12-07T15:38:48;65.85;;;43.25;;
21761;SDS011;11203;50.870;20.682;2022-12-07T15:41:14;68.82;;;46.30;;
21761;SDS011;11203;50.870;20.682;2022-12-07T15:43:42;71.63;;;46.03;;
21761;SDS011;11203;50.870;20.682;2022-12-07T15:46:41;75.03;;;47.25;;
21761;SDS011;11203;50.870;20.682;2022-12-07T15:49:14;64.78;;;39.20;;
21761;SDS011;11203;50.870;20.682;2022-12-07T15:51:43;73.20;;;45.42;;
21761;SDS011;11203;50.870;20.682;2022-12-07T15:54:16;64.55;;;37.30;;
21761;SDS011;11203;50.870;20.682;2022-12-07T15:56:51;57.78;;;38.90;;
21761;SDS011;11203;50.870;20.682;2022-12-07T15:59:18;57.42;;;34.67;;
21761;SDS011;11203;50.870;20.682;2022-12-07T16:01:44;56.97;;;34.92;;
21761;SDS011;11203;50.870;20.682;2022-12-07T16:04:10;52.92;;;34.13;;
21761;SDS011;11203;50.870;20.682;2022-12-07T16:06:36;50.00;;;31.98;;
21761;SDS011;11203;50.870;20.682;2022-12-07T16:09:03;51.30;;;33.00;;
21761;SDS011;11203;50.870;20.682;2022-12-07T16:11:30;49.45;;;30.17;;
21761;SDS011;11203;50.870;20.682;2022-12-07T16:13:56;54.90;;;35.53;;
21761;SDS011;11203;50.870;20.682;2022-12-07T16:16:22;55.65;;;34.08;;
21761;SDS011;11203;50.870;20.682;2022-12-07T16:18:49;55.53;;;31.98;;
21761;SDS011;11203;50.870;20.682;2022-12-07T16:21:16;47.00;;;31.02;;
21761;SDS011;11203;50.870;20.682;2022-12-07T16:23:43;45.08;;;31.90;;
21761;SDS011;11203;50.870;20.682;2022-12-07T16:26:16;41.42;;;24.77;;
21761;SDS011;11203;50.870;20.682;2022-12-07T16:28:44;46.22;;;29.60;;
21761;SDS011;11203;50.870;20.682;2022-12-07T16:31:15;48.38;;;30.55;;
21761;SDS011;11203;50.870;20.682;2022-12-07T16:33:45;48.45;;;31.02;;
21761;SDS011;11203;50.870;20.682;2022-12-07T16:36:12;42.75;;;29.83;;
21761;SDS011;11203;50.870;20.682;2022-12-07T16:38:41;40.33;;;28.33;;
21761;SDS011;11203;50.870;20.682;2022-12-07T16:41:08;39.83;;;29.05;;
21761;SDS011;11203;50.870;20.682;2022-12-07T16:43:35;39.90;;;26.83;;
21761;SDS011;11203;50.870;20.682;2022-12-07T16:46:02;37.28;;;25.88;;
21761;SDS011;11203;50.870;20.682;2022-12-07T16:48:29;34.90;;;23.90;;
21761;SDS011;11203;50.870;20.682;2022-12-07T16:50:56;32.78;;;21.98;;
21761;SDS011;11203;50.870;20.682;2022-12-07T16:53:23;29.13;;;22.90;;
21761;SDS011;11203;50.870;20.682;2022-12-07T16:55:49;34.22;;;21.17;;
21761;SDS011;11203;50.870;20.682;2022-12-07T16:58:16;34.15;;;23.95;;
21761;SDS011;11203;50.870;20.682;2022-12-07T17:00:43;38.33;;;25.27;;
21761;SDS011;11203;50.870;20.682;2022-12-07T17:03:11;37.33;;;26.77;;
21761;SDS011;11203;50.870;20.682;2022-12-07T17:05:38;37.88;;;25.02;;
21761;SDS011;11203;50.870;20.682;2022-12-07T17:08:06;42.42;;;26.98;;
21761;SDS011;11203;50.870;20.682;2022-12-07T17:10:34;47.85;;;28.65;;